If you wish to contribute or participate in the discussions about articles you are invited to join SKYbrary as a registered user

DNEN

From SKYbrary Wiki
Airport
ICAO: DNEN – IATA: ENU
Summary
Name Enugu/Akanu Ibiam International Airport
Region Africa
Territory Nigeria NG.gif
Location Enugu
Main city served Enugu
Elevation 142.037 m
466 ft
Coordinates 6° 28' 31.64", 7° 33' 42.8851"
More airports
in DN
DNMM
Runways
Designator Length Width Surface
8/26 2402 m7,880.577 ft 45 m147.638 ft ASP


METAR
Observation DNEN 220900Z 00000KT 6000 SCT010 29/25 Q1014 NOSIG
Station Enugu
Date/Time 22 November 2014 09:00:00
Wind direction
Wind speed 00 kts
Lowest cloud amount scattered clouds
Temperature 29°C
Dew point 25°C
Humidity 79%
QNH 1014 hPa
Weather condition n/a


Enugu/Akanu Ibiam International Airport

ICAO: DNEN IATA: ENU

Description

Akanu Ibiam International Airport, also known as Enugu Airport, is an airport serving Enugu, a city in the Enugu State of Nigeria.

Climatology

Tropical Savanna climate (Köppen climate classification Aw)

Maps

Terrain

Airport Layout

Accidents & Serious Incidents at or in vicinity of DNEN

None on SKYbrary